createdAt,value
2018-11-20T04:29:19.639Z,20.90
2018-11-20T04:32:19.798Z,24.10
2018-11-20T04:35:14.263Z,22.13
2018-11-20T04:38:06.833Z,22.83
2018-11-20T04:40:59.178Z,22.23
2018-11-20T04:43:51.589Z,24.83
2018-11-20T04:46:43.922Z,25.70
2018-11-20T04:49:38.864Z,24.70
2018-11-20T04:52:30.949Z,23.63
2018-11-20T04:55:23.239Z,22.30
2018-11-20T04:58:15.820Z,24.20
2018-11-20T05:01:08.502Z,22.40
2018-11-20T05:04:02.684Z,23.37
2018-11-20T05:06:49.287Z,23.13
2018-11-20T05:09:41.749Z,21.37
2018-11-20T05:12:34.372Z,25.77
2018-11-20T05:15:28.321Z,22.77
2018-11-20T05:21:35.446Z,23.93
2018-11-20T05:24:19.054Z,22.47
2018-11-20T05:27:09.095Z,22.80
2018-11-20T05:30:03.240Z,25.33
2018-11-20T05:32:55.953Z,21.23
2018-11-20T05:35:44.445Z,22.90
2018-11-20T05:38:35.614Z,23.63
2018-11-20T05:41:17.059Z,22.23
2018-11-20T05:44:08.141Z,22.57
2018-11-20T05:47:03.171Z,24.07
2018-11-20T05:49:55.869Z,23.93
2018-11-20T05:52:54.185Z,24.67
2018-11-20T05:55:51.080Z,21.97
2018-11-20T05:58:47.770Z,28.67
2018-11-20T06:01:44.843Z,23.17
2018-11-20T06:04:36.060Z,22.90
2018-11-20T06:07:28.614Z,22.43
2018-11-20T06:10:22.928Z,26.93
2018-11-20T06:13:13.932Z,23.33
2018-11-20T06:16:09.573Z,23.17
2018-11-20T06:19:01.885Z,26.40
2018-11-20T06:21:52.715Z,30.57
2018-11-20T06:24:47.903Z,26.30
2018-11-20T06:27:40.430Z,24.37
2018-11-20T06:30:32.960Z,30.23
2018-11-20T06:33:33.251Z,25.83
2018-11-20T06:36:27.937Z,24.27
2018-11-20T06:39:14.595Z,27.27
2018-11-20T06:42:08.296Z,23.23
2018-11-20T06:45:18.752Z,25.97
2018-11-20T06:48:18.784Z,26.33
2018-11-20T06:51:21.849Z,27.10
2018-11-20T06:54:10.516Z,22.67
2018-11-20T06:57:02.761Z,23.90
2018-11-20T06:59:53.581Z,26.43
2018-11-20T07:02:51.741Z,28.60
2018-11-20T07:05:53.166Z,27.10
2018-11-20T07:08:49.441Z,26.43
2018-11-20T07:11:51.134Z,26.60
2018-11-20T07:14:44.874Z,26.47
2018-11-20T07:17:48.995Z,29.93
2018-11-20T07:20:46.281Z,23.17
2018-11-20T07:23:50.285Z,25.50
2018-11-20T07:26:44.068Z,25.27
2018-11-20T07:29:46.592Z,26.67
2018-11-20T07:32:44.059Z,27.83
2018-11-20T07:35:39.536Z,26.47
2018-11-20T07:38:49.848Z,27.37
2018-11-20T07:41:44.337Z,24.27
2018-11-20T07:44:55.619Z,25.80
2018-11-20T07:47:46.721Z,24.80
2018-11-20T07:50:38.141Z,29.60
2018-11-20T07:53:07.295Z,28.33
2018-11-20T07:56:13.935Z,26.27
2018-11-20T07:59:07.061Z,26.97
2018-11-20T08:02:07.414Z,24.80
2018-11-20T08:04:51.053Z,28.87
2018-11-20T08:07:47.409Z,26.20
2018-11-20T08:10:51.599Z,25.17
2018-11-20T08:13:41.980Z,27.93
2018-11-20T08:16:25.435Z,25.53
2018-11-20T08:19:09.936Z,27.70
2018-11-20T08:22:08.353Z,26.23
2018-11-20T08:25:05.498Z,26.63
2018-11-20T08:28:08.914Z,24.43
2018-11-20T08:31:03.765Z,24.93
2018-11-20T08:33:50.305Z,25.43
2018-11-20T08:36:44.395Z,22.80
2018-11-20T08:39:54.528Z,22.80
2018-11-20T08:42:48.706Z,24.97
2018-11-20T08:45:54.601Z,27.10
2018-11-20T08:48:49.944Z,26.50
2018-11-20T08:51:33.516Z,26.33
2018-11-20T08:54:32.036Z,25.87
2018-11-20T08:57:23.337Z,23.87
2018-11-20T09:00:25.108Z,26.83
2018-11-20T09:03:25.674Z,25.03
2018-11-20T09:06:20.653Z,26.23
2018-11-20T09:09:09.791Z,25.30
2018-11-20T09:12:14.437Z,26.77
2018-11-20T09:15:18.572Z,28.90
2018-11-20T09:18:28.376Z,28.57
2018-11-20T09:21:29.150Z,26.33
2018-11-20T09:24:21.987Z,28.67
2018-11-20T09:27:33.198Z,28.53
2018-11-20T09:30:38.686Z,28.70
2018-11-20T09:33:22.935Z,28.27
2018-11-20T09:36:19.506Z,26.63
2018-11-20T09:39:10.705Z,26.07
2018-11-20T09:41:50.700Z,25.63
2018-11-20T09:45:02.636Z,28.63
2018-11-20T09:48:03.290Z,27.37
2018-11-20T09:51:06.035Z,29.60
2018-11-20T09:54:18.750Z,29.63
2018-11-20T09:57:12.412Z,27.87
2018-11-20T10:00:08.597Z,26.13
2018-11-20T10:03:21.138Z,26.00
2018-11-20T10:06:13.434Z,28.17
2018-11-20T10:08:55.051Z,28.03
2018-11-20T10:12:09.181Z,28.93
2018-11-20T10:15:00.530Z,29.73
2018-11-20T10:17:52.339Z,30.57
2018-11-20T10:20:57.247Z,26.77
2018-11-20T10:23:44.294Z,30.70
2018-11-20T10:26:46.320Z,25.63
2018-11-20T10:29:40.372Z,27.90
2018-11-20T10:32:33.519Z,31.00
2018-11-20T10:35:30.662Z,29.30
2018-11-20T10:38:22.099Z,25.63
2018-11-20T10:41:17.453Z,29.87
2018-11-20T10:44:21.739Z,25.40
2018-11-20T10:47:23.306Z,27.93
2018-11-20T10:50:16.286Z,28.00
2018-11-20T10:53:01.627Z,29.77
2018-11-20T10:56:00.426Z,25.93
2018-11-20T10:58:51.070Z,26.00
2018-11-20T11:01:44.755Z,30.07
2018-11-20T11:04:38.293Z,26.73
2018-11-20T11:07:30.128Z,27.93
2018-11-20T11:10:38.106Z,30.67
2018-11-20T11:13:29.424Z,29.50
2018-11-20T11:16:27.948Z,28.03
2018-11-20T11:19:19.227Z,31.53
2018-11-20T11:22:06.782Z,27.13
2018-11-20T11:25:00.293Z,32.53
2018-11-20T11:27:54.102Z,29.03
2018-11-20T11:31:02.742Z,31.53
2018-11-20T11:34:18.024Z,29.70
2018-11-20T11:37:28.456Z,26.83
2018-11-20T11:40:09.152Z,27.03
2018-11-20T11:43:17.869Z,26.40
2018-11-20T11:46:23.304Z,29.57
2018-11-20T11:49:16.995Z,30.13
2018-11-20T11:52:03.365Z,26.57
2018-11-20T11:55:07.148Z,29.43
2018-11-20T11:58:25.166Z,30.87
2018-11-20T12:01:26.600Z,28.83
2018-11-20T12:04:17.672Z,29.87
2018-11-20T12:07:05.656Z,25.97
2018-11-20T12:10:18.642Z,31.10
2018-11-20T12:16:01.810Z,27.93
2018-11-20T12:19:00.574Z,24.93
2018-11-20T12:22:02.129Z,26.50
2018-11-20T12:25:06.197Z,31.20
2018-11-20T12:27:59.309Z,28.90
2018-11-20T12:30:42.563Z,28.57
2018-11-20T12:33:24.006Z,30.57
2018-11-20T12:36:18.150Z,30.90
2018-11-20T12:39:07.561Z,27.87
2018-11-20T12:41:52.184Z,30.63
2018-11-20T12:44:41.429Z,26.73
2018-11-20T12:47:32.020Z,27.00
2018-11-20T12:50:31.830Z,30.70
2018-11-20T12:53:42.384Z,29.13
2018-11-20T12:56:33.985Z,28.50
2018-11-20T12:59:23.114Z,27.10
2018-11-20T13:02:34.401Z,28.20
2018-11-20T13:05:33.310Z,32.13
2018-11-20T13:08:31.065Z,25.47
2018-11-20T13:11:22.369Z,29.83
2018-11-20T13:14:30.330Z,30.43
2018-11-20T13:17:30.195Z,25.60
2018-11-20T13:20:19.953Z,25.73
2018-11-20T13:23:15.338Z,27.07
2018-11-20T13:26:07.779Z,28.17
2018-11-20T13:29:02.862Z,27.00
2018-11-20T13:32:02.431Z,25.93
2018-11-20T13:34:54.754Z,27.03
2018-11-20T13:37:47.428Z,30.67
2018-11-20T13:41:20.482Z,24.10
2018-11-20T13:44:11.932Z,25.20
2018-11-20T13:47:01.655Z,26.70
2018-11-20T13:49:52.928Z,29.60
2018-11-20T13:52:43.842Z,24.57
2018-11-20T13:55:27.356Z,27.27
2018-11-20T13:58:19.376Z,24.60
2018-11-20T14:01:31.664Z,22.10
2018-11-20T14:04:25.119Z,22.77
2018-11-20T14:07:15.911Z,23.80
2018-11-20T14:10:20.885Z,20.63
2018-11-20T14:13:24.188Z,17.63
2018-11-20T14:16:17.147Z,18.03
2018-11-20T14:19:10.328Z,17.50
2018-11-20T14:22:01.577Z,18.00
2018-11-20T14:24:52.382Z,15.30
2018-11-20T14:27:59.605Z,16.13
2018-11-20T14:30:50.556Z,15.73
2018-11-20T14:33:39.682Z,19.90
2018-11-20T14:36:39.907Z,17.77
2018-11-20T14:39:40.466Z,15.53
2018-11-20T14:42:23.480Z,17.60
2018-11-20T14:45:15.577Z,16.60
2018-11-20T14:48:04.092Z,16.67
2018-11-20T14:51:02.782Z,17.47
2018-11-20T14:53:56.677Z,17.90
2018-11-20T14:56:41.648Z,18.80
2018-11-20T14:59:32.556Z,16.87
2018-11-20T15:02:23.559Z,16.33
2018-11-20T15:05:12.898Z,16.00
2018-11-20T15:08:06.476Z,14.97
2018-11-20T15:11:11.027Z,19.67
2018-11-20T15:13:56.937Z,18.77
2018-11-20T15:17:04.680Z,16.60
2018-11-20T15:19:54.021Z,16.03
2018-11-20T15:23:01.225Z,16.80
2018-11-20T15:25:56.625Z,17.47
2018-11-20T15:28:57.622Z,18.23
2018-11-20T15:31:50.551Z,19.03
2018-11-20T15:34:39.616Z,17.80
2018-11-20T15:37:22.337Z,17.90
2018-11-20T15:40:09.847Z,18.53
2018-11-20T15:43:06.436Z,23.60
2018-11-20T15:45:55.599Z,20.83
2018-11-20T15:48:50.807Z,18.50
2018-11-20T15:51:41.414Z,20.40
2018-11-20T15:54:34.492Z,19.33
2018-11-20T15:57:25.899Z,17.90
2018-11-20T16:00:23.527Z,21.30
2018-11-20T16:03:35.307Z,19.83
2018-11-20T16:06:32.655Z,19.27
2018-11-20T16:09:27.098Z,21.63
2018-11-20T16:12:15.380Z,20.40
2018-11-20T16:15:08.858Z,20.97
2018-11-20T16:17:59.582Z,20.93
2018-11-20T16:21:04.024Z,22.07
2018-11-20T16:24:08.446Z,24.03
2018-11-20T16:27:00.372Z,24.73
2018-11-20T16:29:47.825Z,25.10
2018-11-20T16:32:36.497Z,22.63
2018-11-20T16:35:42.488Z,22.60
2018-11-20T16:38:37.483Z,23.23
2018-11-20T16:41:32.097Z,22.00
2018-11-20T16:44:19.507Z,22.27
2018-11-20T16:47:14.754Z,22.97
2018-11-20T16:50:02.909Z,25.03
2018-11-20T16:52:50.489Z,26.93
2018-11-20T16:55:39.709Z,22.60
2018-11-20T16:58:43.566Z,26.60
2018-11-20T17:01:31.488Z,24.20
2018-11-20T17:04:23.695Z,27.87
2018-11-20T17:07:18.290Z,24.47
2018-11-20T17:10:06.087Z,27.13
2018-11-20T17:13:03.181Z,27.57
2018-11-20T17:15:48.199Z,25.93
2018-11-20T17:18:38.803Z,27.17
2018-11-20T17:21:32.894Z,25.80
2018-11-20T17:24:37.816Z,27.83
2018-11-20T17:27:33.299Z,26.17
2018-11-20T17:30:28.736Z,27.03
2018-11-20T17:33:24.056Z,25.93
2018-11-20T17:36:10.377Z,25.60
2018-11-20T17:38:57.399Z,25.80
2018-11-20T17:41:53.034Z,26.80
2018-11-20T17:44:47.520Z,27.20
2018-11-20T17:47:33.472Z,28.67
2018-11-20T17:50:27.009Z,31.63
2018-11-20T17:53:28.380Z,26.13
2018-11-20T17:56:27.209Z,26.40
2018-11-20T17:59:15.532Z,26.70
2018-11-20T18:02:12.505Z,27.00
2018-11-20T18:05:05.392Z,28.57
2018-11-20T18:07:58.018Z,30.03
2018-11-20T18:11:09.533Z,24.10
2018-11-20T18:14:10.659Z,28.07
2018-11-20T18:16:58.857Z,25.97
2018-11-20T18:19:53.719Z,25.13
2018-11-20T18:22:55.415Z,24.93
2018-11-20T18:25:46.547Z,30.00
2018-11-20T18:28:46.441Z,26.63
2018-11-20T18:31:40.688Z,25.13
2018-11-20T18:34:31.646Z,25.40
2018-11-20T18:37:25.860Z,29.47
2018-11-20T18:40:17.910Z,24.23
2018-11-20T18:43:15.225Z,28.37
2018-11-20T18:46:10.501Z,24.90
2018-11-20T18:49:11.875Z,26.43
2018-11-20T18:52:04.128Z,27.50
2018-11-20T18:54:59.200Z,24.70
2018-11-20T18:57:46.274Z,24.87
2018-11-20T19:00:41.014Z,27.00
2018-11-20T19:03:51.612Z,25.73
2018-11-20T19:06:44.687Z,29.47
2018-11-20T19:09:35.496Z,27.43
2018-11-20T19:12:44.698Z,27.00
2018-11-20T19:15:41.620Z,24.30
2018-11-20T19:18:19.107Z,26.43
2018-11-20T19:21:17.280Z,28.27
2018-11-20T19:24:16.290Z,26.97
2018-11-20T19:27:10.654Z,24.70
2018-11-20T19:30:11.770Z,26.30
2018-11-20T19:33:00.715Z,26.27
2018-11-20T19:35:56.544Z,29.10
2018-11-20T19:38:49.155Z,26.47
2018-11-20T19:41:52.054Z,27.50
2018-11-20T19:44:42.743Z,26.07
2018-11-20T19:47:47.414Z,26.13
2018-11-20T19:50:39.914Z,24.60
2018-11-20T19:53:40.812Z,24.60
2018-11-20T19:56:32.496Z,23.17
2018-11-20T19:59:35.375Z,28.77
2018-11-20T20:02:26.206Z,22.40
2018-11-20T20:05:17.896Z,24.33
2018-11-20T20:08:11.102Z,26.10
2018-11-20T20:11:13.003Z,26.53
2018-11-20T20:17:04.734Z,26.20
2018-11-20T20:19:53.056Z,27.97
2018-11-20T20:22:39.637Z,21.73
2018-11-20T20:25:38.579Z,26.77
2018-11-20T20:28:29.577Z,23.93
2018-11-20T20:31:23.869Z,27.17
2018-11-20T20:34:15.246Z,26.90
2018-11-20T20:37:07.999Z,23.83
2018-11-20T20:40:07.932Z,25.23
2018-11-20T20:42:51.064Z,23.93
2018-11-20T20:45:44.429Z,25.43
2018-11-20T20:48:57.833Z,25.77
2018-11-20T20:51:49.783Z,23.67
2018-11-20T20:54:40.715Z,22.87
2018-11-20T20:57:22.314Z,25.87
2018-11-20T21:00:09.118Z,24.97
2018-11-20T21:03:08.645Z,25.63
2018-11-20T21:06:07.053Z,22.90
2018-11-20T21:09:02.007Z,25.77
2018-11-20T21:11:35.394Z,22.17
2018-11-20T21:14:28.089Z,25.83
2018-11-20T21:17:15.962Z,24.90
2018-11-20T21:20:21.574Z,22.40
2018-11-20T21:23:12.331Z,22.63
2018-11-20T21:27:00.887Z,24.50
2018-11-20T21:30:01.292Z,22.00
2018-11-20T21:33:01.752Z,23.93
2018-11-20T21:36:02.530Z,22.27
2018-11-20T21:39:08.825Z,22.80
2018-11-20T21:42:00.032Z,24.10
2018-11-20T21:45:00.776Z,23.13
2018-11-20T21:48:01.180Z,21.33
2018-11-20T21:50:56.496Z,22.70
2018-11-20T21:53:59.866Z,22.23
